Time;durP1;ratioP1;P1;durP2;ratioP2;P2;SDS_P1;SDS_P2;PMS_P1;PMS_P2;Temp;Humidity;BMP_temperature;BMP_pressure;BME280_temperature;BME280_humidity;BME280_pressure;Samples;Min_cycle;Max_cycle;Signal;HPM_P1;HPM_P2
2024/03/20 00:00:19;;;;;;;238.20;75.00;;;;;;;;;;5011052;28;20173;-43
2024/03/20 00:02:46;;;;;;;236.55;75.30;;;;;;;;;;5009663;28;20420;-42
2024/03/20 00:05:15;;;;;;;236.48;74.05;;;;;;;;;;5010679;28;20242;-44
2024/03/20 00:07:41;;;;;;;233.90;71.70;;;;;;;;;;5008123;28;20200;-43
2024/03/20 00:10:08;;;;;;;232.83;71.13;;;;;;;;;;5011113;28;20176;-43
2024/03/20 00:12:34;;;;;;;235.10;73.40;;;;;;;;;;5011093;28;20497;-44
2024/03/20 00:15:00;;;;;;;233.90;72.10;;;;;;;;;;5010784;28;20502;-43
2024/03/20 00:17:26;;;;;;;236.15;74.05;;;;;;;;;;5010962;28;20221;-43
2024/03/20 00:19:54;;;;;;;236.07;74.07;;;;;;;;;;5010111;28;20182;-43
2024/03/20 00:22:19;;;;;;;237.00;76.17;;;;;;;;;;5010924;28;20420;-43
2024/03/20 00:24:45;;;;;;;237.17;77.27;;;;;;;;;;5010768;28;20465;-43
2024/03/20 00:27:11;;;;;;;235.30;73.30;;;;;;;;;;5013435;28;20442;-43
2024/03/20 00:29:37;;;;;;;234.83;74.50;;;;;;;;;;5014687;28;20411;-43
2024/03/20 00:32:03;;;;;;;233.07;71.03;;;;;;;;;;5014761;28;20422;-43
2024/03/20 00:34:29;;;;;;;233.80;73.83;;;;;;;;;;5014905;28;20793;-43
2024/03/20 00:36:56;;;;;;;232.17;69.50;;;;;;;;;;5014501;28;20474;-43
2024/03/20 00:39:23;;;;;;;237.02;75.30;;;;;;;;;;5014815;28;20898;-43
2024/03/20 00:41:49;;;;;;;235.43;75.38;;;;;;;;;;5012971;28;20172;-43
2024/03/20 00:44:15;;;;;;;230.97;69.20;;;;;;;;;;5014481;28;20288;-42
2024/03/20 00:46:41;;;;;;;237.05;76.70;;;;;;;;;;5014459;28;20487;-43
2024/03/20 00:49:07;;;;;;;231.40;71.20;;;;;;;;;;5014619;28;20276;-43
2024/03/20 00:51:33;;;;;;;240.40;75.87;;;;;;;;;;5014517;28;20410;-44
2024/03/20 00:53:59;;;;;;;236.30;77.13;;;;;;;;;;5014801;28;20699;-43
2024/03/20 00:56:25;;;;;;;231.13;69.03;;;;;;;;;;5013750;28;20293;-43
2024/03/20 00:58:51;;;;;;;232.33;72.80;;;;;;;;;;5014365;28;20460;-42
2024/03/20 01:01:17;;;;;;;236.27;75.87;;;;;;;;;;5014279;28;20425;-43
2024/03/20 01:03:43;;;;;;;231.23;71.33;;;;;;;;;;5014401;28;20469;-43
2024/03/20 01:06:09;;;;;;;232.27;72.00;;;;;;;;;;5014033;28;20450;-42
2024/03/20 01:08:38;;;;;;;234.80;74.00;;;;;;;;;;5014220;28;20899;-43
2024/03/20 01:11:05;;;;;;;231.38;69.85;;;;;;;;;;5014367;28;20517;-43
2024/03/20 01:13:31;;;;;;;236.65;76.30;;;;;;;;;;5014629;28;20537;-43
2024/03/20 01:15:57;;;;;;;233.93;74.07;;;;;;;;;;5013980;28;20242;-43
2024/03/20 01:18:23;;;;;;;238.40;75.70;;;;;;;;;;5014077;28;20420;-43
2024/03/20 01:20:49;;;;;;;234.45;74.47;;;;;;;;;;5014297;28;20441;-43
2024/03/20 01:23:15;;;;;;;231.67;71.57;;;;;;;;;;5014370;28;20554;-43
2024/03/20 01:25:41;;;;;;;233.60;70.87;;;;;;;;;;5013870;28;20448;-43
2024/03/20 01:28:07;;;;;;;234.90;74.50;;;;;;;;;;5013946;28;20457;-42
2024/03/20 01:30:33;;;;;;;230.47;70.10;;;;;;;;;;5013909;28;20191;-43
2024/03/20 01:32:59;;;;;;;233.80;72.80;;;;;;;;;;5013956;28;20440;-43
2024/03/20 01:35:25;;;;;;;234.60;72.90;;;;;;;;;;5013609;28;20910;-44
2024/03/20 01:37:51;;;;;;;233.63;73.30;;;;;;;;;;5013152;28;20585;-42
2024/03/20 01:40:17;;;;;;;231.53;70.87;;;;;;;;;;5013720;28;20425;-43
2024/03/20 01:42:43;;;;;;;233.33;72.07;;;;;;;;;;5014254;28;20450;-43
2024/03/20 01:45:13;;;;;;;235.97;73.40;;;;;;;;;;5013649;28;20827;-43
2024/03/20 01:47:40;;;;;;;234.75;74.82;;;;;;;;;;5013584;28;20426;-43
2024/03/20 01:50:08;;;;;;;231.93;70.78;;;;;;;;;;5013640;28;20233;-43
2024/03/20 01:52:34;;;;;;;233.15;71.55;;;;;;;;;;5013907;28;20595;-43
2024/03/20 01:55:01;;;;;;;233.83;72.70;;;;;;;;;;5013827;28;20323;-43
2024/03/20 01:57:27;;;;;;;233.80;71.65;;;;;;;;;;5013507;28;20434;-43
2024/03/20 01:59:52;;;;;;;234.70;75.67;;;;;;;;;;5013703;28;20209;-42
2024/03/20 02:02:18;;;;;;;232.67;73.90;;;;;;;;;;5013046;28;20429;-43
2024/03/20 02:04:44;;;;;;;230.30;70.63;;;;;;;;;;5012751;28;20470;-44
2024/03/20 02:07:11;;;;;;;231.32;68.00;;;;;;;;;;5012518;28;20454;-43
2024/03/20 02:09:37;;;;;;;231.47;70.87;;;;;;;;;;5013065;28;20649;-43
2024/03/20 02:12:03;;;;;;;246.10;80.50;;;;;;;;;;5011104;28;20937;-44
2024/03/20 02:14:29;;;;;;;234.10;75.75;;;;;;;;;;5010221;28;20909;-43
2024/03/20 02:16:55;;;;;;;236.17;77.80;;;;;;;;;;5012371;28;20236;-43
2024/03/20 02:19:21;;;;;;;237.40;79.80;;;;;;;;;;5012753;28;20497;-42
2024/03/20 02:21:47;;;;;;;233.23;71.60;;;;;;;;;;5012397;28;20707;-43
2024/03/20 02:24:13;;;;;;;232.93;74.75;;;;;;;;;;5012712;28;20453;-42
2024/03/20 02:26:39;;;;;;;231.77;71.07;;;;;;;;;;5009220;28;20195;-43
2024/03/20 02:29:05;;;;;;;233.50;74.00;;;;;;;;;;5012954;28;20447;-43
2024/03/20 02:31:31;;;;;;;232.07;73.27;;;;;;;;;;5012930;28;20405;-43
2024/03/20 02:33:56;;;;;;;233.37;74.93;;;;;;;;;;5012868;28;20639;-43
2024/03/20 02:36:22;;;;;;;233.13;71.57;;;;;;;;;;5012308;28;20436;-43
2024/03/20 02:38:48;;;;;;;229.57;69.27;;;;;;;;;;5012576;28;20420;-43
2024/03/20 02:41:14;;;;;;;231.87;70.70;;;;;;;;;;5012798;28;20412;-44
2024/03/20 02:43:41;;;;;;;232.43;72.25;;;;;;;;;;5012701;28;20492;-43
2024/03/20 02:46:07;;;;;;;234.07;75.17;;;;;;;;;;5012179;28;20226;-43
2024/03/20 02:48:34;;;;;;;234.10;75.57;;;;;;;;;;5012398;28;20409;-44
2024/03/20 02:51:00;;;;;;;233.25;72.18;;;;;;;;;;5011587;28;20489;-43
2024/03/20 02:53:26;;;;;;;235.07;74.83;;;;;;;;;;5012404;28;20310;-43
2024/03/20 02:55:52;;;;;;;232.83;73.77;;;;;;;;;;5012203;28;20794;-43
2024/03/20 02:58:18;;;;;;;230.90;70.20;;;;;;;;;;5012253;28;20514;-44
2024/03/20 03:00:44;;;;;;;229.87;69.83;;;;;;;;;;5012256;28;20414;-42
2024/03/20 03:03:10;;;;;;;233.53;74.47;;;;;;;;;;5012134;28;20418;-42
2024/03/20 03:05:36;;;;;;;229.90;69.17;;;;;;;;;;5011715;28;20463;-43
2024/03/20 03:08:03;;;;;;;230.13;70.80;;;;;;;;;;5011935;28;20413;-43
2024/03/20 03:10:29;;;;;;;232.10;70.63;;;;;;;;;;5012097;28;20201;-43
2024/03/20 03:12:55;;;;;;;234.53;75.90;;;;;;;;;;5012258;28;20677;-43
2024/03/20 03:15:21;;;;;;;235.10;72.43;;;;;;;;;;5011710;28;20418;-43
2024/03/20 03:17:47;;;;;;;233.55;73.57;;;;;;;;;;5012435;28;20443;-43
2024/03/20 03:20:14;;;;;;;229.07;68.32;;;;;;;;;;5012521;28;20168;-44
2024/03/20 03:22:41;;;;;;;231.90;73.60;;;;;;;;;;5011838;28;20178;-42
2024/03/20 03:25:07;;;;;;;235.73;77.05;;;;;;;;;;5011827;28;20462;-43
2024/03/20 03:27:33;;;;;;;234.00;75.18;;;;;;;;;;5011644;28;20201;-43
2024/03/20 03:30:00;;;;;;;231.00;70.33;;;;;;;;;;5011812;28;20181;-43
2024/03/20 03:32:26;;;;;;;233.63;73.97;;;;;;;;;;5011675;28;20411;-43
2024/03/20 03:34:52;;;;;;;232.97;73.30;;;;;;;;;;5011685;28;20280;-43
2024/03/20 03:37:18;;;;;;;233.98;73.30;;;;;;;;;;5011468;28;20805;-42
2024/03/20 03:39:44;;;;;;;233.40;73.57;;;;;;;;;;5011712;28;20179;-43
2024/03/20 03:42:14;;;;;;;234.13;74.97;;;;;;;;;;5011810;28;20451;-44
2024/03/20 03:44:40;;;;;;;232.27;70.80;;;;;;;;;;5011606;28;20570;-44
2024/03/20 03:47:06;;;;;;;229.33;67.67;;;;;;;;;;5011138;28;20718;-42
2024/03/20 03:49:33;;;;;;;230.17;69.00;;;;;;;;;;5011396;28;20499;-43
2024/03/20 03:51:59;;;;;;;233.10;71.63;;;;;;;;;;5011326;28;20426;-42
2024/03/20 03:54:25;;;;;;;232.33;69.60;;;;;;;;;;5011335;28;20183;-43
2024/03/20 03:56:51;;;;;;;233.37;74.20;;;;;;;;;;5011029;28;20515;-43
2024/03/20 03:59:17;;;;;;;231.88;71.78;;;;;;;;;;5011301;28;20408;-43
2024/03/20 04:01:43;;;;;;;232.80;73.90;;;;;;;;;;5011095;28;20279;-43
2024/03/20 04:04:10;;;;;;;233.05;71.68;;;;;;;;;;5011324;28;20495;-42
2024/03/20 04:06:36;;;;;;;236.63;76.55;;;;;;;;;;5010835;28;20219;-43
2024/03/20 04:09:02;;;;;;;232.73;71.17;;;;;;;;;;5011197;28;20174;-43
2024/03/20 04:11:29;;;;;;;230.90;70.60;;;;;;;;;;5011046;28;20412;-43
2024/03/20 04:13:55;;;;;;;232.93;72.15;;;;;;;;;;5011380;28;20415;-43
2024/03/20 04:16:21;;;;;;;231.07;71.37;;;;;;;;;;5010772;28;20296;-43
2024/03/20 04:18:47;;;;;;;233.07;72.90;;;;;;;;;;5011001;28;20426;-43
2024/03/20 04:21:13;;;;;;;230.60;71.47;;;;;;;;;;5010377;28;20419;-42
2024/03/20 04:23:39;;;;;;;233.77;72.77;;;;;;;;;;5008547;28;20824;-43
2024/03/20 04:26:05;;;;;;;233.80;74.90;;;;;;;;;;5010651;28;20438;-43
2024/03/20 04:28:32;;;;;;;236.38;75.70;;;;;;;;;;5010846;28;20219;-43
2024/03/20 04:30:58;;;;;;;232.18;71.05;;;;;;;;;;5011214;28;20176;-43
2024/03/20 04:33:24;;;;;;;233.97;76.00;;;;;;;;;;5010836;28;20169;-43
2024/03/20 04:35:50;;;;;;;234.48;74.95;;;;;;;;;;5010558;28;20853;-46
2024/03/20 04:38:16;;;;;;;233.00;72.60;;;;;;;;;;5010764;28;20178;-45
2024/03/20 04:40:42;;;;;;;231.83;70.27;;;;;;;;;;5011105;28;20409;-45
2024/03/20 04:43:08;;;;;;;233.10;73.87;;;;;;;;;;5010818;28;20925;-45
2024/03/20 04:45:34;;;;;;;232.00;71.20;;;;;;;;;;5010428;28;20841;-45
2024/03/20 04:48:00;;;;;;;233.30;72.60;;;;;;;;;;5010656;28;20654;-45
2024/03/20 04:50:26;;;;;;;228.97;69.10;;;;;;;;;;5010763;28;20419;-45
2024/03/20 04:52:52;;;;;;;231.00;71.10;;;;;;;;;;5011095;28;20469;-46
2024/03/20 04:55:18;;;;;;;237.40;77.00;;;;;;;;;;5010566;28;20593;-45
2024/03/20 04:57:44;;;;;;;234.82;75.70;;;;;;;;;;5011026;28;20837;-45
2024/03/20 05:00:14;;;;;;;232.03;72.40;;;;;;;;;;5010640;28;20473;-45
2024/03/20 05:02:40;;;;;;;230.20;71.47;;;;;;;;;;5002679;28;20487;-45
2024/03/20 05:05:07;;;;;;;230.82;69.00;;;;;;;;;;5011438;28;20700;-45
2024/03/20 05:07:33;;;;;;;233.20;72.50;;;;;;;;;;5010329;28;20204;-45
2024/03/20 05:09:59;;;;;;;235.35;75.30;;;;;;;;;;5010695;28;20176;-45
2024/03/20 05:12:25;;;;;;;233.43;73.13;;;;;;;;;;5010521;28;20173;-45
2024/03/20 05:14:51;;;;;;;231.20;70.40;;;;;;;;;;5014266;28;20564;-45
2024/03/20 05:17:16;;;;;;;230.83;69.97;;;;;;;;;;5014003;28;20858;-45
2024/03/20 05:19:43;;;;;;;228.67;67.10;;;;;;;;;;5014308;28;20827;-45
2024/03/20 05:22:09;;;;;;;230.63;67.95;;;;;;;;;;5014269;28;20407;-45
2024/03/20 05:24:35;;;;;;;229.20;68.20;;;;;;;;;;5014095;28;20563;-45
2024/03/20 05:27:01;;;;;;;232.57;71.70;;;;;;;;;;5013697;28;20943;-45
2024/03/20 05:29:27;;;;;;;231.98;71.28;;;;;;;;;;5014528;28;20520;-45
2024/03/20 05:31:53;;;;;;;230.07;70.03;;;;;;;;;;5013868;28;20660;-45
2024/03/20 05:34:19;;;;;;;232.03;71.17;;;;;;;;;;5013968;28;20497;-45
2024/03/20 05:36:45;;;;;;;230.60;69.77;;;;;;;;;;5013590;28;20493;-45
2024/03/20 05:39:11;;;;;;;232.67;73.67;;;;;;;;;;5014008;28;20420;-45
2024/03/20 05:41:38;;;;;;;233.75;73.28;;;;;;;;;;5014016;28;20417;-45
2024/03/20 05:44:05;;;;;;;232.38;72.03;;;;;;;;;;5013835;28;20203;-45
2024/03/20 05:46:31;;;;;;;236.70;77.45;;;;;;;;;;5012980;28;20192;-45
2024/03/20 05:48:58;;;;;;;230.25;69.60;;;;;;;;;;5013689;28;20175;-45
2024/03/20 05:51:24;;;;;;;231.20;70.85;;;;;;;;;;5013806;28;20172;-45
2024/03/20 05:53:50;;;;;;;232.07;73.60;;;;;;;;;;5013566;28;20184;-45
2024/03/20 05:56:16;;;;;;;230.10;69.70;;;;;;;;;;5013218;28;20200;-45
2024/03/20 05:58:45;;;;;;;229.27;71.70;;;;;;;;;;5013433;28;20525;-45
2024/03/20 06:01:11;;;;;;;227.65;67.90;;;;;;;;;;5013329;28;20418;-45
2024/03/20 06:03:37;;;;;;;233.13;71.40;;;;;;;;;;5013419;28;20673;-45
2024/03/20 06:06:03;;;;;;;232.35;72.00;;;;;;;;;;5013093;28;20459;-46
2024/03/20 06:08:29;;;;;;;233.75;74.43;;;;;;;;;;5013059;28;20173;-45
2024/03/20 06:10:57;;;;;;;233.87;74.53;;;;;;;;;;5013224;28;20200;-45
2024/03/20 06:13:23;;;;;;;233.68;72.38;;;;;;;;;;5013049;28;20748;-45
2024/03/20 06:15:49;;;;;;;236.10;77.20;;;;;;;;;;5012839;28;20579;-45
2024/03/20 06:18:15;;;;;;;233.27;75.20;;;;;;;;;;5013068;28;20176;-45
2024/03/20 06:20:41;;;;;;;235.07;76.15;;;;;;;;;;5012104;28;20941;-45
2024/03/20 06:23:07;;;;;;;233.97;75.90;;;;;;;;;;5012970;28;20177;-45
2024/03/20 06:25:33;;;;;;;231.60;70.30;;;;;;;;;;5012385;28;20466;-45
2024/03/20 06:28:00;;;;;;;233.73;74.00;;;;;;;;;;5012865;28;20472;-45
2024/03/20 06:30:26;;;;;;;233.50;73.38;;;;;;;;;;5012784;28;20406;-45
2024/03/20 06:32:52;;;;;;;232.50;72.90;;;;;;;;;;5012878;28;20547;-45
2024/03/20 06:35:18;;;;;;;239.00;77.57;;;;;;;;;;5012646;28;20619;-45
2024/03/20 06:37:45;;;;;;;238.88;80.47;;;;;;;;;;5012602;28;20498;-45
2024/03/20 06:40:11;;;;;;;233.98;72.78;;;;;;;;;;5012773;28;20195;-45
2024/03/20 06:42:40;;;;;;;235.10;75.60;;;;;;;;;;5012259;28;20183;-45
2024/03/20 06:45:06;;;;;;;237.27;79.05;;;;;;;;;;5009284;28;20505;-45
2024/03/20 06:47:32;;;;;;;238.50;79.80;;;;;;;;;;5007158;28;20199;-45
2024/03/20 06:49:59;;;;;;;240.95;81.80;;;;;;;;;;5012646;28;20461;-45
2024/03/20 06:52:25;;;;;;;236.47;74.63;;;;;;;;;;5012410;28;20183;-45
2024/03/20 06:54:52;;;;;;;236.97;76.93;;;;;;;;;;5012402;28;20922;-45
2024/03/20 06:57:18;;;;;;;236.77;77.40;;;;;;;;;;5011679;28;20968;-45
2024/03/20 06:59:45;;;;;;;235.20;74.40;;;;;;;;;;5012142;28;20976;-45
2024/03/20 07:02:11;;;;;;;241.47;80.73;;;;;;;;;;5012074;28;20419;-45
2024/03/20 07:04:37;;;;;;;238.70;78.77;;;;;;;;;;5011787;28;20469;-45
2024/03/20 07:07:04;;;;;;;237.80;76.57;;;;;;;;;;5011550;28;20443;-45
2024/03/20 07:09:31;;;;;;;239.25;80.65;;;;;;;;;;5011963;28;20469;-45
2024/03/20 07:11:57;;;;;;;239.40;78.50;;;;;;;;;;5011810;28;20267;-45
2024/03/20 07:14:25;;;;;;;241.07;81.17;;;;;;;;;;5011976;28;20175;-45
2024/03/20 07:16:51;;;;;;;241.87;83.00;;;;;;;;;;5011588;28;20434;-45
2024/03/20 07:19:17;;;;;;;241.23;82.53;;;;;;;;;;5011960;28;20971;-45
2024/03/20 07:21:43;;;;;;;243.47;83.43;;;;;;;;;;5011714;28;20419;-45
2024/03/20 07:24:10;;;;;;;241.50;81.83;;;;;;;;;;5011706;28;20455;-45
2024/03/20 07:26:37;;;;;;;243.07;86.43;;;;;;;;;;5011147;28;20433;-45
2024/03/20 07:29:06;;;;;;;240.73;82.00;;;;;;;;;;5006837;28;20418;-45
2024/03/20 07:31:36;;;;;;;263.13;98.17;;;;;;;;;;5010353;28;20413;-45
2024/03/20 07:34:03;;;;;;;241.37;82.53;;;;;;;;;;5013862;28;20577;-45
2024/03/20 07:36:29;;;;;;;243.30;82.47;;;;;;;;;;5010587;28;20871;-45
2024/03/20 07:38:55;;;;;;;243.97;86.70;;;;;;;;;;5011181;28;20421;-45
2024/03/20 07:41:21;;;;;;;244.20;86.43;;;;;;;;;;5011785;28;20421;-46
2024/03/20 07:43:47;;;;;;;246.87;86.70;;;;;;;;;;5011279;28;20457;-45
2024/03/20 07:46:13;;;;;;;244.40;86.97;;;;;;;;;;5010991;28;20425;-46
2024/03/20 07:48:46;;;;;;;242.43;85.63;;;;;;;;;;5008138;28;20406;-45
2024/03/20 07:51:14;;;;;;;244.87;86.77;;;;;;;;;;5011314;28;20402;-46
2024/03/20 07:53:41;;;;;;;247.30;90.33;;;;;;;;;;5011026;28;20423;-46
2024/03/20 07:56:07;;;;;;;245.90;88.83;;;;;;;;;;5010890;28;20445;-45
2024/03/20 07:58:33;;;;;;;245.80;89.17;;;;;;;;;;5011056;28;20422;-46
2024/03/20 08:01:00;;;;;;;246.30;91.23;;;;;;;;;;5011106;28;20451;-45
2024/03/20 08:03:26;;;;;;;250.57;94.73;;;;;;;;;;5010874;28;20510;-45
2024/03/20 08:05:52;;;;;;;247.07;91.07;;;;;;;;;;5010944;28;20540;-46
2024/03/20 08:08:18;;;;;;;245.83;89.63;;;;;;;;;;5010936;28;20923;-45
2024/03/20 08:10:45;;;;;;;245.30;89.63;;;;;;;;;;5011102;28;20824;-46
2024/03/20 08:13:11;;;;;;;251.03;96.80;;;;;;;;;;5011194;28;20469;-45
2024/03/20 08:15:40;;;;;;;250.67;96.40;;;;;;;;;;5010678;28;20407;-45
2024/03/20 08:18:11;;;;;;;247.83;93.57;;;;;;;;;;5011102;28;20434;-46
2024/03/20 08:20:40;;;;;;;250.67;95.03;;;;;;;;;;5010053;28;20430;-45
2024/03/20 08:23:06;;;;;;;245.93;92.67;;;;;;;;;;5010752;28;20417;-45
2024/03/20 08:25:33;;;;;;;248.63;95.17;;;;;;;;;;5010513;28;20459;-45
2024/03/20 08:27:58;;;;;;;250.63;96.87;;;;;;;;;;5011017;28;20461;-46
2024/03/20 08:30:25;;;;;;;251.37;99.33;;;;;;;;;;5010969;28;20407;-46
2024/03/20 08:32:51;;;;;;;250.53;97.67;;;;;;;;;;5010881;28;20410;-46
2024/03/20 08:35:17;;;;;;;252.63;98.63;;;;;;;;;;5010337;28;20438;-46
2024/03/20 08:37:46;;;;;;;248.57;95.63;;;;;;;;;;5010964;28;20451;-46
2024/03/20 08:40:16;;;;;;;250.07;98.20;;;;;;;;;;5010839;28;20419;-46
2024/03/20 08:42:42;;;;;;;248.80;94.57;;;;;;;;;;5010656;28;20403;-46
2024/03/20 08:45:09;;;;;;;250.73;96.10;;;;;;;;;;5010901;28;20814;-46
2024/03/20 08:47:35;;;;;;;248.40;94.70;;;;;;;;;;5011094;28;20435;-46
2024/03/20 08:50:02;;;;;;;245.93;94.13;;;;;;;;;;5014799;28;20905;-46
2024/03/20 08:52:28;;;;;;;249.23;96.77;;;;;;;;;;5014935;28;20418;-46
2024/03/20 08:54:54;;;;;;;252.37;103.13;;;;;;;;;;5014811;28;20834;-46
2024/03/20 08:57:21;;;;;;;249.20;98.53;;;;;;;;;;5014334;28;20445;-46
2024/03/20 08:59:48;;;;;;;247.33;95.53;;;;;;;;;;5014965;28;20411;-46
2024/03/20 09:02:14;;;;;;;250.07;98.53;;;;;;;;;;5014342;28;20426;-46
2024/03/20 09:04:40;;;;;;;251.47;101.83;;;;;;;;;;5014367;28;20462;-46
2024/03/20 09:07:07;;;;;;;253.10;105.00;;;;;;;;;;5013949;28;20942;-46
2024/03/20 09:09:33;;;;;;;251.50;101.73;;;;;;;;;;5014609;28;20529;-46
2024/03/20 09:11:59;;;;;;;254.10;104.27;;;;;;;;;;5014337;28;20419;-46
2024/03/20 09:14:25;;;;;;;252.03;102.60;;;;;;;;;;5014343;28;20421;-46
2024/03/20 09:16:53;;;;;;;251.40;101.93;;;;;;;;;;5013691;28;20435;-45
2024/03/20 09:19:19;;;;;;;249.60;98.87;;;;;;;;;;5014288;28;20418;-46
2024/03/20 09:21:45;;;;;;;251.23;98.27;;;;;;;;;;5012695;28;20438;-45
2024/03/20 09:24:18;;;;;;;249.10;98.13;;;;;;;;;;5013289;28;20463;-45
2024/03/20 09:26:44;;;;;;;252.63;103.43;;;;;;;;;;5012765;28;20472;-46
2024/03/20 09:29:14;;;;;;;248.30;100.20;;;;;;;;;;5013996;28;20505;-46
2024/03/20 09:31:40;;;;;;;249.33;99.33;;;;;;;;;;5013873;28;20442;-46
2024/03/20 09:34:06;;;;;;;248.80;97.20;;;;;;;;;;5013965;28;20908;-46
2024/03/20 09:36:32;;;;;;;252.93;107.23;;;;;;;;;;5012403;28;20437;-46
2024/03/20 09:38:58;;;;;;;251.93;104.10;;;;;;;;;;5014132;28;20457;-46
2024/03/20 09:41:25;;;;;;;253.00;107.93;;;;;;;;;;5014232;28;20419;-46
2024/03/20 09:43:54;;;;;;;255.97;111.43;;;;;;;;;;5013598;28;20641;-46
2024/03/20 09:46:20;;;;;;;254.43;112.33;;;;;;;;;;5013399;28;20494;-46
2024/03/20 09:48:50;;;;;;;256.07;112.93;;;;;;;;;;5013541;28;20492;-46
2024/03/20 09:51:20;;;;;;;253.93;113.40;;;;;;;;;;5013543;28;20430;-46
2024/03/20 09:53:49;;;;;;;253.77;111.70;;;;;;;;;;5013595;28;20927;-46
2024/03/20 09:56:17;;;;;;;256.47;116.97;;;;;;;;;;5013191;28;20815;-46
2024/03/20 09:58:43;;;;;;;261.00;121.27;;;;;;;;;;5012552;28;20450;-47
2024/03/20 10:01:12;;;;;;;258.87;117.17;;;;;;;;;;5012260;28;20415;-46
2024/03/20 10:03:38;;;;;;;262.77;125.90;;;;;;;;;;5015392;28;20466;-46
2024/03/20 10:06:04;;;;;;;259.00;119.23;;;;;;;;;;5012749;28;20490;-46
2024/03/20 10:08:30;;;;;;;258.00;120.60;;;;;;;;;;5006109;28;20415;-46
2024/03/20 10:10:57;;;;;;;258.80;122.03;;;;;;;;;;5012909;28;20486;-46
2024/03/20 10:13:24;;;;;;;259.00;119.87;;;;;;;;;;5013037;28;20419;-46
2024/03/20 10:16:03;;;;;;;257.13;122.00;;;;;;;;;;5012860;28;20812;-46
2024/03/20 10:18:29;;;;;;;258.00;122.00;;;;;;;;;;5012939;28;20414;-46
2024/03/20 10:20:55;;;;;;;257.30;121.83;;;;;;;;;;5012318;28;20427;-46
2024/03/20 10:23:21;;;;;;;258.10;123.27;;;;;;;;;;5013571;28;20465;-46
2024/03/20 10:25:49;;;;;;;254.37;116.43;;;;;;;;;;5012634;28;20794;-46
2024/03/20 10:28:17;;;;;;;254.07;120.10;;;;;;;;;;5012690;28;20419;-46
2024/03/20 10:30:43;;;;;;;254.57;117.00;;;;;;;;;;5012725;28;20418;-46
2024/03/20 10:33:15;;;;;;;255.27;118.83;;;;;;;;;;5012718;28;20407;-46
2024/03/20 10:35:42;;;;;;;256.37;118.97;;;;;;;;;;5012438;28;20410;-46
2024/03/20 10:38:09;;;;;;;258.10;117.27;;;;;;;;;;5012534;28;20403;-46
2024/03/20 10:40:36;;;;;;;257.67;119.97;;;;;;;;;;5012649;28;20414;-46
2024/03/20 10:43:02;;;;;;;254.77;118.43;;;;;;;;;;5012438;28;20411;-46
2024/03/20 10:45:28;;;;;;;259.97;128.00;;;;;;;;;;5011370;28;20541;-47
2024/03/20 10:47:56;;;;;;;257.63;125.03;;;;;;;;;;5012432;28;20477;-46
2024/03/20 10:50:22;;;;;;;256.17;123.77;;;;;;;;;;5012360;28;20407;-46
2024/03/20 10:52:49;;;;;;;259.10;128.70;;;;;;;;;;5012325;28;20407;-47
2024/03/20 10:55:19;;;;;;;258.77;126.10;;;;;;;;;;5012106;28;20473;-47
2024/03/20 10:57:48;;;;;;;256.10;122.30;;;;;;;;;;5012134;28;20435;-46
2024/03/20 11:00:22;;;;;;;257.07;125.70;;;;;;;;;;5012350;28;20485;-46
2024/03/20 11:02:48;;;;;;;256.40;126.07;;;;;;;;;;5012321;28;20507;-47
2024/03/20 11:05:33;;;;;;;261.87;127.67;;;;;;;;;;5011639;28;20493;-47
2024/03/20 11:07:59;;;;;;;255.53;123.33;;;;;;;;;;5012147;28;20796;-46
2024/03/20 11:10:26;;;;;;;256.93;125.83;;;;;;;;;;5010445;28;20493;-46
2024/03/20 11:12:54;;;;;;;258.27;125.23;;;;;;;;;;5012047;28;20434;-46
2024/03/20 11:15:20;;;;;;;257.30;122.13;;;;;;;;;;5011773;28;20489;-46
2024/03/20 11:17:52;;;;;;;262.50;129.30;;;;;;;;;;5011507;28;20525;-46
2024/03/20 11:20:37;;;;;;;261.57;119.00;;;;;;;;;;5011190;28;20438;-46
2024/03/20 11:23:07;;;;;;;257.23;116.43;;;;;;;;;;5012592;28;20922;-46
2024/03/20 11:25:39;;;;;;;257.03;116.63;;;;;;;;;;5011084;28;20976;-46
2024/03/20 11:28:05;;;;;;;256.43;117.37;;;;;;;;;;5011575;28;20419;-46
2024/03/20 11:30:31;;;;;;;259.63;117.90;;;;;;;;;;5011713;28;20435;-46
2024/03/20 11:32:57;;;;;;;258.23;117.67;;;;;;;;;;5011864;28;20421;-45
2024/03/20 11:35:26;;;;;;;260.27;118.30;;;;;;;;;;5011450;28;20418;-46
2024/03/20 11:37:52;;;;;;;256.37;113.67;;;;;;;;;;5011615;28;20443;-46
2024/03/20 11:40:18;;;;;;;257.80;115.33;;;;;;;;;;5011737;28;20427;-46
2024/03/20 11:42:49;;;;;;;254.40;109.33;;;;;;;;;;5011157;28;20415;-46
2024/03/20 11:45:16;;;;;;;255.40;112.13;;;;;;;;;;5011011;28;20462;-46
2024/03/20 11:47:42;;;;;;;254.30;107.23;;;;;;;;;;5010256;28;20434;-46
2024/03/20 11:50:13;;;;;;;254.30;108.63;;;;;;;;;;5010615;28;20404;-46
2024/03/20 11:52:39;;;;;;;251.73;104.17;;;;;;;;;;5011437;28;20411;-47
2024/03/20 11:55:09;;;;;;;258.30;105.47;;;;;;;;;;5010443;28;20418;-47
2024/03/20 11:57:34;;;;;;;253.57;107.63;;;;;;;;;;5011336;28;21140;-46
2024/03/20 12:00:00;;;;;;;252.73;106.10;;;;;;;;;;5011036;28;20433;-46
2024/03/20 12:02:34;;;;;;;253.83;108.33;;;;;;;;;;5010174;28;20484;-47
2024/03/20 12:05:00;;;;;;;255.23;110.07;;;;;;;;;;5010807;28;20464;-47
2024/03/20 12:07:28;;;;;;;256.27;110.83;;;;;;;;;;5010674;28;20455;-47
2024/03/20 12:09:55;;;;;;;255.93;112.83;;;;;;;;;;5011160;28;21297;-46
2024/03/20 12:12:22;;;;;;;253.80;111.13;;;;;;;;;;5011220;28;20842;-47
2024/03/20 12:14:49;;;;;;;256.03;114.07;;;;;;;;;;5011232;28;20407;-46
2024/03/20 12:17:15;;;;;;;253.70;108.77;;;;;;;;;;5010831;28;20438;-47
2024/03/20 12:19:41;;;;;;;250.67;108.87;;;;;;;;;;5011359;28;20419;-46
2024/03/20 12:22:10;;;;;;;251.57;108.70;;;;;;;;;;5010228;28;20879;-46
2024/03/20 12:24:36;;;;;;;255.23;111.43;;;;;;;;;;5009624;28;20551;-47
2024/03/20 12:27:01;;;;;;;257.50;115.43;;;;;;;;;;5005855;28;20846;-46
2024/03/20 12:29:28;;;;;;;254.50;111.40;;;;;;;;;;5010037;28;20468;-46
2024/03/20 12:31:53;;;;;;;253.93;110.83;;;;;;;;;;5010840;28;20407;-46
2024/03/20 12:34:19;;;;;;;255.07;112.53;;;;;;;;;;5010667;28;20859;-46
2024/03/20 12:36:45;;;;;;;255.17;111.03;;;;;;;;;;5009477;28;20443;-47
2024/03/20 12:39:12;;;;;;;254.47;110.63;;;;;;;;;;5010408;28;20423;-46
2024/03/20 12:41:38;;;;;;;252.10;108.07;;;;;;;;;;5010636;28;20465;-46
2024/03/20 12:44:04;;;;;;;253.30;109.20;;;;;;;;;;5010912;28;20454;-47
2024/03/20 12:46:31;;;;;;;251.57;107.07;;;;;;;;;;5010388;28;20419;-46
2024/03/20 12:48:57;;;;;;;256.27;119.67;;;;;;;;;;5010819;28;20902;-46
2024/03/20 12:51:23;;;;;;;254.87;113.27;;;;;;;;;;5010728;28;20403;-47
2024/03/20 12:53:50;;;;;;;254.10;112.67;;;;;;;;;;5010601;28;20498;-47
2024/03/20 12:56:16;;;;;;;250.87;108.13;;;;;;;;;;5009669;28;20431;-45
2024/03/20 12:58:42;;;;;;;255.40;114.67;;;;;;;;;;5010011;28;20446;-46
2024/03/20 13:01:13;;;;;;;253.17;112.63;;;;;;;;;;5010323;28;20482;-46
2024/03/20 13:03:39;;;;;;;252.93;112.53;;;;;;;;;;5009825;28;20418;-46
2024/03/20 13:06:07;;;;;;;255.23;115.00;;;;;;;;;;5012260;28;20439;-45
2024/03/20 13:08:33;;;;;;;256.43;118.87;;;;;;;;;;5010530;28;20481;-46
2024/03/20 13:10:59;;;;;;;255.10;118.70;;;;;;;;;;5009482;28;20407;-46
2024/03/20 13:13:26;;;;;;;257.50;120.23;;;;;;;;;;5010396;28;20495;-46
2024/03/20 13:15:52;;;;;;;262.87;125.00;;;;;;;;;;5009239;28;20446;-46
2024/03/20 13:18:26;;;;;;;255.67;114.97;;;;;;;;;;5010623;28;20445;-46
2024/03/20 13:20:52;;;;;;;253.77;112.33;;;;;;;;;;5010428;28;20414;-46
2024/03/20 13:23:18;;;;;;;252.37;110.03;;;;;;;;;;5010308;28;20468;-46
2024/03/20 13:25:45;;;;;;;254.13;112.43;;;;;;;;;;5010037;28;20541;-46
2024/03/20 13:28:13;;;;;;;251.00;109.00;;;;;;;;;;5010506;28;20419;-46
2024/03/20 13:30:42;;;;;;;255.03;113.73;;;;;;;;;;5010453;28;20414;-45
2024/03/20 13:33:10;;;;;;;254.57;113.87;;;;;;;;;;5010216;28;20443;-46
2024/03/20 13:35:36;;;;;;;251.77;111.83;;;;;;;;;;5013265;28;20425;-46
2024/03/20 13:38:04;;;;;;;252.47;113.90;;;;;;;;;;5013871;28;20415;-46
2024/03/20 13:40:32;;;;;;;254.47;115.27;;;;;;;;;;5013707;28;20450;-46
2024/03/20 13:45:53;;;;;;;259.17;115.07;;;;;;;;;;5013045;28;20548;-46
2024/03/20 13:48:19;;;;;;;252.90;109.17;;;;;;;;;;5013604;28;20918;-46
2024/03/20 13:50:45;;;;;;;255.03;114.03;;;;;;;;;;5013950;28;20998;-46
2024/03/20 13:53:11;;;;;;;253.27;116.40;;;;;;;;;;5013564;28;20981;-46
2024/03/20 13:55:36;;;;;;;255.37;112.17;;;;;;;;;;5013086;28;20419;-46
2024/03/20 13:58:03;;;;;;;253.37;113.40;;;;;;;;;;5013156;28;20449;-46
2024/03/20 14:00:29;;;;;;;255.33;117.73;;;;;;;;;;5013278;28;20515;-46